createdAt,value
2023-04-17T07:21:44.499Z,988.59
2023-04-17T07:22:00.491Z,988.59
2023-04-17T07:22:32.501Z,988.56
2023-04-17T07:22:48.484Z,988.56
2023-04-17T07:23:04.625Z,988.57
2023-04-17T07:23:36.468Z,988.59
2023-04-17T07:23:52.468Z,988.59
2023-04-17T07:24:08.467Z,988.59
2023-04-17T07:24:40.448Z,988.58
2023-04-17T07:24:56.485Z,988.58
2023-04-17T07:25:12.466Z,988.58
2023-04-17T07:25:44.495Z,988.6
2023-04-17T07:26:00.486Z,988.6
2023-04-17T07:26:16.472Z,988.6
2023-04-17T07:26:48.499Z,988.61
2023-04-17T07:27:20.497Z,988.6
2023-04-17T07:27:52.494Z,988.62
2023-04-17T07:28:24.499Z,988.63
2023-04-17T07:28:56.483Z,988.64
2023-04-17T07:29:28.490Z,988.64
2023-04-17T07:30:00.467Z,988.63
2023-04-17T07:30:16.488Z,988.64
2023-04-17T07:30:32.511Z,988.64
2023-04-17T07:31:20.553Z,988.66
2023-04-17T07:31:36.494Z,988.67
2023-04-17T07:32:24.591Z,988.69
2023-04-17T07:32:40.496Z,988.68
2023-04-17T07:32:56.484Z,988.68
2023-04-17T07:33:12.503Z,988.69
2023-04-17T07:33:28.472Z,988.67
2023-04-17T07:34:00.520Z,988.67
2023-04-17T07:34:16.480Z,988.69
2023-04-17T07:34:32.487Z,988.68
2023-04-17T07:34:48.467Z,988.68
2023-04-17T07:35:04.522Z,988.67
2023-04-17T07:35:20.505Z,988.67
2023-04-17T07:35:36.476Z,988.67
2023-04-17T07:35:52.474Z,988.67
2023-04-17T07:36:08.466Z,988.67
2023-04-17T07:36:40.516Z,988.68
2023-04-17T07:36:56.486Z,988.66
2023-04-17T07:37:12.493Z,988.67
2023-04-17T07:37:44.470Z,988.67
2023-04-17T07:38:00.475Z,988.68
2023-04-17T07:38:16.491Z,988.66
2023-04-17T07:38:32.481Z,988.67
2023-04-17T07:38:48.484Z,988.68
2023-04-17T07:39:20.479Z,988.69
2023-04-17T07:39:36.484Z,988.68
2023-04-17T07:39:52.473Z,988.68
2023-04-17T07:40:40.974Z,988.69
2023-04-17T07:40:56.482Z,988.71
2023-04-17T07:41:12.564Z,988.7
2023-04-17T07:41:44.608Z,988.68
2023-04-17T07:42:00.503Z,988.69
2023-04-17T07:42:48.494Z,988.68
2023-04-17T07:43:04.507Z,988.68
2023-04-17T07:43:52.521Z,988.67
2023-04-17T07:44:08.501Z,988.67
2023-04-17T07:44:56.494Z,988.68
2023-04-17T07:45:12.512Z,988.66
2023-04-17T07:46:00.494Z,988.68
2023-04-17T07:46:16.538Z,988.67
2023-04-17T07:46:32.578Z,988.68
2023-04-17T07:47:20.612Z,988.67
2023-04-17T07:47:36.553Z,988.67
2023-04-17T07:47:52.570Z,988.68
2023-04-17T07:48:24.507Z,988.67
2023-04-17T07:48:40.510Z,988.67
2023-04-17T07:48:56.497Z,988.69
2023-04-17T07:49:28.524Z,988.69
2023-04-17T07:49:44.539Z,988.69
2023-04-17T07:50:00.545Z,988.69
2023-04-17T07:50:32.510Z,988.69
2023-04-17T07:50:48.502Z,988.7
2023-04-17T07:51:04.506Z,988.71
2023-04-17T07:51:20.503Z,988.71
2023-04-17T07:51:36.512Z,988.71
2023-04-17T07:51:52.509Z,988.72
2023-04-17T07:52:08.519Z,988.73
2023-04-17T07:52:40.578Z,988.73
2023-04-17T07:52:56.509Z,988.73
2023-04-17T07:53:12.529Z,988.74
2023-04-17T07:53:28.534Z,988.74
2023-04-17T07:53:44.504Z,988.73
2023-04-17T07:54:00.508Z,988.74
2023-04-17T07:54:16.540Z,988.74
2023-04-17T07:54:32.509Z,988.74
2023-04-17T07:54:48.530Z,988.74
2023-04-17T07:55:20.494Z,988.75
2023-04-17T07:55:36.502Z,988.76
2023-04-17T07:55:52.505Z,988.76
2023-04-17T07:56:08.529Z,988.74
2023-04-17T07:56:24.512Z,988.74
2023-04-17T07:56:40.515Z,988.75
2023-04-17T07:56:56.636Z,988.76
2023-04-17T07:57:28.515Z,988.75
2023-04-17T07:58:00.555Z,988.77
2023-04-17T07:58:16.511Z,988.78
2023-04-17T07:58:32.533Z,988.78
2023-04-17T07:58:48.536Z,988.78
2023-04-17T07:59:20.518Z,988.74
2023-04-17T07:59:36.555Z,988.76
2023-04-17T07:59:52.534Z,988.78
2023-04-17T08:00:24.563Z,988.77
2023-04-17T08:00:40.533Z,988.76
2023-04-17T08:00:56.545Z,988.75
2023-04-17T08:01:12.544Z,988.74
2023-04-17T08:01:28.546Z,988.75
2023-04-17T08:01:44.582Z,988.76
2023-04-17T08:02:00.627Z,988.75
2023-04-17T08:02:16.653Z,988.74
2023-04-17T08:02:32.672Z,988.75
2023-04-17T08:02:48.659Z,988.76
2023-04-17T08:03:04.678Z,988.75
2023-04-17T08:03:36.956Z,988.76
2023-04-17T08:03:52.912Z,988.77
2023-04-17T08:04:08.755Z,988.77
2023-04-17T08:05:28.821Z,988.79
2023-04-17T08:05:44.303Z,988.77
2023-04-17T08:06:32.344Z,988.79
2023-04-17T08:06:48.290Z,988.79
2023-04-17T08:07:04.300Z,988.79
2023-04-17T08:07:36.436Z,988.8
2023-04-17T08:07:52.421Z,988.81
2023-04-17T08:08:08.297Z,988.81
2023-04-17T08:08:40.355Z,988.8
2023-04-17T08:08:56.426Z,988.81
2023-04-17T08:09:44.367Z,988.8
2023-04-17T08:10:00.328Z,988.81
2023-04-17T08:10:16.355Z,988.8
2023-04-17T08:10:48.647Z,988.79
2023-04-17T08:11:04.367Z,988.8
2023-04-17T08:11:20.926Z,988.81
2023-04-17T08:11:57.443Z,988.8
2023-04-17T08:12:08.418Z,988.81
2023-04-17T08:12:24.452Z,988.82
2023-04-17T08:12:56.433Z,988.83
2023-04-17T08:13:28.428Z,988.83
2023-04-17T08:14:00.403Z,988.83
2023-04-17T08:14:32.905Z,988.82
2023-04-17T08:17:39.066Z,988.87
2023-04-17T08:17:55.072Z,988.87
2023-04-17T08:18:27.025Z,988.87
2023-04-17T08:18:43.030Z,988.88
2023-04-17T08:18:59.048Z,988.87
2023-04-17T08:19:31.009Z,988.88
2023-04-17T08:19:47.054Z,988.89
2023-04-17T08:20:03.053Z,988.9
2023-04-17T08:20:35.064Z,988.9
2023-04-17T08:20:51.209Z,988.9
2023-04-17T08:21:07.236Z,988.9
2023-04-17T08:21:39.183Z,988.9
2023-04-17T08:21:55.180Z,988.91
2023-04-17T08:22:11.181Z,988.91
2023-04-17T08:22:43.245Z,988.91
2023-04-17T08:22:59.233Z,988.92
2023-04-17T08:23:15.229Z,988.92
2023-04-17T08:23:47.284Z,988.93
2023-04-17T08:24:03.206Z,988.94
2023-04-17T08:24:20.016Z,988.93
2023-04-17T08:24:51.243Z,988.93
2023-04-17T08:25:07.245Z,988.94
2023-04-17T08:25:23.217Z,988.93
2023-04-17T08:25:55.233Z,988.92
2023-04-17T08:26:11.213Z,988.91
2023-04-17T08:26:27.276Z,988.91
2023-04-17T08:26:43.370Z,988.91
2023-04-17T08:27:15.250Z,988.91
2023-04-17T08:27:31.260Z,988.91
2023-04-17T08:28:35.268Z,988.89
2023-04-17T08:28:51.277Z,988.9
2023-04-17T08:29:23.261Z,988.88
2023-04-17T08:29:39.290Z,988.87
2023-04-17T08:29:55.285Z,988.87
2023-04-17T08:30:27.253Z,988.85
2023-04-17T08:30:43.291Z,988.86
2023-04-17T08:30:59.368Z,988.86
2023-04-17T08:31:31.404Z,988.84
2023-04-17T08:31:47.265Z,988.83
2023-04-17T08:32:13.893Z,988.82
2023-04-17T08:32:35.383Z,988.81
2023-04-17T08:32:51.330Z,988.82
2023-04-17T08:33:07.267Z,988.83
2023-04-17T08:33:39.311Z,988.82
2023-04-17T08:34:06.204Z,988.83
2023-04-17T08:34:15.010Z,988.82
2023-04-17T08:34:27.305Z,988.83
2023-04-17T08:34:43.309Z,988.83
2023-04-17T08:34:59.303Z,988.83
2023-04-17T08:35:15.312Z,988.82
2023-04-17T08:35:31.323Z,988.82
2023-04-17T08:35:47.329Z,988.82
2023-04-17T08:36:04.274Z,988.82
2023-04-17T08:36:19.332Z,988.81
2023-04-17T08:36:35.315Z,988.82
2023-04-17T08:37:07.484Z,988.82
2023-04-17T08:37:23.490Z,988.8
2023-04-17T08:37:39.554Z,988.81
2023-04-17T08:37:55.495Z,988.81
2023-04-17T08:38:11.504Z,988.82
2023-04-17T08:38:27.513Z,988.79
2023-04-17T08:38:43.504Z,988.8
2023-04-17T08:38:59.521Z,988.8
2023-04-17T08:39:15.550Z,988.8
2023-04-17T08:39:31.499Z,988.8
2023-04-17T08:39:47.492Z,988.8
2023-04-17T08:40:03.497Z,988.82
2023-04-17T08:40:19.495Z,988.81
2023-04-17T08:40:35.521Z,988.8
2023-04-17T08:40:51.502Z,988.81
2023-04-17T08:41:07.497Z,988.81
2023-04-17T08:41:23.497Z,988.8
2023-04-17T08:41:39.490Z,988.8
2023-04-17T08:41:55.509Z,988.81
2023-04-17T08:42:14.635Z,988.82
2023-04-17T08:42:27.522Z,988.82
2023-04-17T08:42:43.522Z,988.8
2023-04-17T08:42:59.518Z,988.79
2023-04-17T08:43:15.518Z,988.79
2023-04-17T08:43:31.500Z,988.79
2023-04-17T08:43:47.499Z,988.79
2023-04-17T08:44:03.508Z,988.8
2023-04-17T08:44:35.558Z,988.78
2023-04-17T08:44:51.511Z,988.77
2023-04-17T08:45:07.591Z,988.78
2023-04-17T08:45:23.552Z,988.79
2023-04-17T08:45:55.738Z,988.78
2023-04-17T08:46:11.565Z,988.78
2023-04-17T08:46:27.586Z,988.79
2023-04-17T08:46:43.609Z,988.78
2023-04-17T08:46:59.561Z,988.76
2023-04-17T08:47:15.548Z,988.77
2023-04-17T08:47:31.600Z,988.78
2023-04-17T08:47:47.575Z,988.78
2023-04-17T08:48:03.585Z,988.78
2023-04-17T08:48:35.559Z,988.78
2023-04-17T08:48:52.297Z,988.77
2023-04-17T08:49:07.533Z,988.78
2023-04-17T08:49:23.548Z,988.78
2023-04-17T08:49:39.568Z,988.78
2023-04-17T08:49:55.567Z,988.78
2023-04-17T08:50:11.566Z,988.78
2023-04-17T08:50:27.557Z,988.78
2023-04-17T08:50:43.561Z,988.78
2023-04-17T08:51:15.552Z,988.79
2023-04-17T08:51:31.579Z,988.8
2023-04-17T08:51:47.573Z,988.81
2023-04-17T08:52:03.570Z,988.8
2023-04-17T08:52:35.593Z,988.81
2023-04-17T08:52:51.563Z,988.81
2023-04-17T08:53:07.570Z,988.81
2023-04-17T08:53:24.045Z,988.82
2023-04-17T08:53:39.627Z,988.83
2023-04-17T08:53:55.730Z,988.82
2023-04-17T08:54:11.634Z,988.82
2023-04-17T08:54:27.609Z,988.84
2023-04-17T08:54:43.624Z,988.83
2023-04-17T08:55:15.672Z,988.85
2023-04-17T08:55:31.631Z,988.85
2023-04-17T08:55:47.620Z,988.84
2023-04-17T08:56:04.181Z,988.85
2023-04-17T08:56:19.680Z,988.84
2023-04-17T08:56:35.655Z,988.84
2023-04-17T08:56:51.640Z,988.84
2023-04-17T08:57:07.741Z,988.83
2023-04-17T08:57:23.679Z,988.85
2023-04-17T08:57:55.660Z,988.86
2023-04-17T08:58:12.025Z,988.85
2023-04-17T08:58:28.753Z,988.85
2023-04-17T08:58:43.695Z,988.85
2023-04-17T08:59:15.685Z,988.84
2023-04-17T08:59:47.724Z,988.85
2023-04-17T09:00:03.717Z,988.86
2023-04-17T09:00:51.721Z,988.86
2023-04-17T09:01:07.720Z,988.88
2023-04-17T09:01:23.714Z,988.88
2023-04-17T09:01:55.889Z,988.88
2023-04-17T09:02:11.926Z,988.87
2023-04-17T09:02:28.011Z,988.86
2023-04-17T09:02:43.913Z,988.86
2023-04-17T09:02:59.923Z,988.86
2023-04-17T09:03:15.851Z,988.86
2023-04-17T09:03:31.901Z,988.9
2023-04-17T09:03:47.893Z,988.88
2023-04-17T09:04:03.962Z,988.87
2023-04-17T09:04:19.884Z,988.88
2023-04-17T09:04:35.816Z,988.88
2023-04-17T09:04:51.785Z,988.88
2023-04-17T09:05:07.790Z,988.87
2023-04-17T09:05:23.732Z,988.87
2023-04-17T09:05:55.748Z,988.86
2023-04-17T09:06:11.744Z,988.86
2023-04-17T09:06:27.769Z,988.85
2023-04-17T09:06:43.748Z,988.87
2023-04-17T09:07:15.803Z,988.89
2023-04-17T09:07:31.771Z,988.89
2023-04-17T09:07:48.403Z,988.89
2023-04-17T09:08:03.780Z,988.89
2023-04-17T09:08:35.776Z,988.89
2023-04-17T09:08:51.772Z,988.89
2023-04-17T09:09:07.802Z,988.9
2023-04-17T09:09:23.792Z,988.89
2023-04-17T09:09:39.819Z,988.9
2023-04-17T09:09:55.799Z,988.9
2023-04-17T09:10:11.806Z,988.89
2023-04-17T09:10:27.774Z,988.88
2023-04-17T09:10:43.832Z,988.88
2023-04-17T09:10:59.842Z,988.89
2023-04-17T09:11:15.815Z,988.9
2023-04-17T09:11:31.817Z,988.91
2023-04-17T09:11:47.809Z,988.91
2023-04-17T09:12:03.869Z,988.9
2023-04-17T09:12:19.824Z,988.89
2023-04-17T09:12:35.819Z,988.88
2023-04-17T09:12:51.836Z,988.87
2023-04-17T09:13:07.852Z,988.88
2023-04-17T09:13:23.834Z,988.88
2023-04-17T09:13:39.846Z,988.89
2023-04-17T09:13:55.876Z,988.89
2023-04-17T09:14:11.829Z,988.89
2023-04-17T09:14:27.818Z,988.89
2023-04-17T09:14:43.892Z,988.89
2023-04-17T09:14:59.847Z,988.88
2023-04-17T09:15:15.850Z,988.88
2023-04-17T09:15:31.856Z,988.87
2023-04-17T09:15:47.868Z,988.88
2023-04-17T09:16:03.891Z,988.88
2023-04-17T09:16:19.938Z,988.88
2023-04-17T09:16:36.031Z,988.87
2023-04-17T09:16:51.856Z,988.87
2023-04-17T09:17:07.859Z,988.87
2023-04-17T09:17:23.895Z,988.87
2023-04-17T09:17:39.927Z,988.87
2023-04-17T09:18:11.992Z,988.86
2023-04-17T09:18:27.860Z,988.87
2023-04-17T09:18:43.867Z,988.86
2023-04-17T09:18:59.895Z,988.85
2023-04-17T09:19:15.868Z,988.86
2023-04-17T09:19:34.618Z,988.86
2023-04-17T09:19:47.888Z,988.87
2023-04-17T09:20:03.923Z,988.87
2023-04-17T09:20:19.994Z,988.86
2023-04-17T09:20:35.884Z,988.86
2023-04-17T09:20:51.900Z,988.86
2023-04-17T09:21:07.905Z,988.88
2023-04-17T09:21:23.944Z,988.86
2023-04-17T09:21:39.931Z,988.88
2023-04-17T09:21:55.898Z,988.87
2023-04-17T09:22:11.947Z,988.85
2023-04-17T09:22:27.920Z,988.85
2023-04-17T09:22:43.950Z,988.87
2023-04-17T09:22:59.956Z,988.85
2023-04-17T09:23:15.965Z,988.85
2023-04-17T09:23:31.949Z,988.86
2023-04-17T09:23:47.923Z,988.85
2023-04-17T09:24:03.950Z,988.85
2023-04-17T09:24:19.959Z,988.85
2023-04-17T09:24:35.927Z,988.87
2023-04-17T09:24:51.978Z,988.87
2023-04-17T09:25:07.958Z,988.86
2023-04-17T09:25:23.961Z,988.84
2023-04-17T09:25:39.977Z,988.86
2023-04-17T09:25:55.948Z,988.86
2023-04-17T09:26:11.996Z,988.86
2023-04-17T09:26:27.963Z,988.86
2023-04-17T09:26:43.950Z,988.86
2023-04-17T09:26:59.952Z,988.86
2023-04-17T09:27:15.978Z,988.85
2023-04-17T09:27:31.973Z,988.85
2023-04-17T09:27:47.995Z,988.85
2023-04-17T09:28:03.967Z,988.85
2023-04-17T09:28:19.965Z,988.86
2023-04-17T09:28:53.070Z,988.86
2023-04-17T09:29:07.968Z,988.84
2023-04-17T09:29:23.997Z,988.86
2023-04-17T09:29:39.963Z,988.86
2023-04-17T09:29:56.060Z,988.85
2023-04-17T09:30:11.973Z,988.86
2023-04-17T09:30:27.972Z,988.86
2023-04-17T09:30:43.966Z,988.86
2023-04-17T09:31:00.052Z,988.84
2023-04-17T09:31:32.223Z,988.85
2023-04-17T09:31:47.996Z,988.84
2023-04-17T09:32:04.036Z,988.84
2023-04-17T09:32:20.019Z,988.85
2023-04-17T09:32:51.977Z,988.85
2023-04-17T09:33:07.983Z,988.85
2023-04-17T09:33:23.979Z,988.83
2023-04-17T09:33:39.992Z,988.83
2023-04-17T09:33:56.755Z,988.82
2023-04-17T09:34:12.620Z,988.82
2023-04-17T09:34:28.040Z,988.82
2023-04-17T09:34:44.053Z,988.81
2023-04-17T09:35:03.684Z,988.82
2023-04-17T09:35:16.075Z,988.82
2023-04-17T09:35:32.063Z,988.82
2023-04-17T09:36:48.551Z,988.79
2023-04-17T09:36:52.091Z,988.8
2023-04-17T09:37:56.102Z,988.76
2023-04-17T09:38:12.120Z,988.78
2023-04-17T09:38:28.114Z,988.76
2023-04-17T09:39:00.195Z,988.76
2023-04-17T09:39:16.134Z,988.78
2023-04-17T09:39:32.115Z,988.78
2023-04-17T09:40:06.987Z,988.75
2023-04-17T09:40:20.152Z,988.76
2023-04-17T09:41:08.095Z,988.75
2023-04-17T09:41:24.145Z,988.74
2023-04-17T09:41:40.147Z,988.75
2023-04-17T09:42:12.139Z,988.72
2023-04-17T09:42:28.148Z,988.71
2023-04-17T09:42:44.151Z,988.69
2023-04-17T09:43:00.184Z,988.69
2023-04-17T09:51:32.368Z,988.67
2023-04-17T09:51:48.358Z,988.69
2023-04-17T09:52:04.361Z,988.67
2023-04-17T09:52:36.416Z,988.7
2023-04-17T09:52:53.816Z,988.69
2023-04-17T09:53:08.423Z,988.68
2023-04-17T09:53:40.392Z,988.68
2023-04-17T09:53:56.407Z,988.68
2023-04-17T09:54:12.945Z,988.68
2023-04-17T09:54:44.373Z,988.65
2023-04-17T09:55:00.382Z,988.65
2023-04-17T09:55:16.423Z,988.66
2023-04-17T09:57:32.097Z,988.65
2023-04-17T09:57:32.174Z,988.67
2023-04-17T09:58:44.835Z,988.65
2023-04-17T09:59:00.476Z,988.66
2023-04-17T09:59:49.866Z,988.63
2023-04-17T10:00:05.716Z,988.63
2023-04-17T10:00:20.478Z,988.63
2023-04-17T10:00:52.542Z,988.62
2023-04-17T10:01:08.551Z,988.62
2023-04-17T10:01:24.553Z,988.59
2023-04-17T10:01:56.590Z,988.62
2023-04-17T10:02:12.636Z,988.61
2023-04-17T10:02:28.598Z,988.6
2023-04-17T10:03:00.762Z,988.59
2023-04-17T10:03:16.718Z,988.59
2023-04-17T10:03:34.845Z,988.58
2023-04-17T10:04:04.664Z,988.55
2023-04-17T10:04:20.574Z,988.54
2023-04-17T10:04:36.515Z,988.53
2023-04-17T10:05:08.501Z,988.54
2023-04-17T10:05:24.511Z,988.54
2023-04-17T10:05:40.494Z,988.55
2023-04-17T10:06:12.511Z,988.56
2023-04-17T10:06:28.483Z,988.56
2023-04-17T10:06:44.515Z,988.56
2023-04-17T10:07:16.764Z,988.55
2023-04-17T10:07:32.489Z,988.55
2023-04-17T10:07:48.494Z,988.56
2023-04-17T10:08:20.538Z,988.57
2023-04-17T10:08:36.540Z,988.57
2023-04-17T10:08:52.530Z,988.59
2023-04-17T10:09:08.513Z,988.58
2023-04-17T10:09:24.600Z,988.57
2023-04-17T10:09:40.526Z,988.57
2023-04-17T10:09:56.524Z,988.58
2023-04-17T10:10:12.553Z,988.56
2023-04-17T10:10:28.550Z,988.56
2023-04-17T10:10:44.540Z,988.56
2023-04-17T10:11:00.622Z,988.55
2023-04-17T10:11:16.701Z,988.56
2023-04-17T10:11:32.568Z,988.56
2023-04-17T10:11:48.563Z,988.57
2023-04-17T10:12:04.572Z,988.56
2023-04-17T10:12:20.569Z,988.55
2023-04-17T10:12:36.577Z,988.55
2023-04-17T10:12:52.525Z,988.53
2023-04-17T10:13:08.558Z,988.52
2023-04-17T10:13:24.579Z,988.53
2023-04-17T10:13:40.568Z,988.53
2023-04-17T10:13:56.579Z,988.52
2023-04-17T10:14:12.956Z,988.52
2023-04-17T10:14:28.573Z,988.52
2023-04-17T10:14:44.541Z,988.51
2023-04-17T10:15:00.602Z,988.51
2023-04-17T10:15:16.733Z,988.52
2023-04-17T10:15:32.594Z,988.52
2023-04-17T10:15:48.590Z,988.52
2023-04-17T10:16:04.668Z,988.51
2023-04-17T10:16:20.655Z,988.51
2023-04-17T10:16:36.694Z,988.53
2023-04-17T10:16:52.688Z,988.52
2023-04-17T10:17:08.604Z,988.52
2023-04-17T10:17:24.646Z,988.52
2023-04-17T10:17:40.646Z,988.5
2023-04-17T10:17:56.671Z,988.5
2023-04-17T10:18:12.657Z,988.49
2023-04-17T10:18:44.620Z,988.47
2023-04-17T10:19:00.589Z,988.47
2023-04-17T10:19:16.666Z,988.47
2023-04-17T10:19:32.589Z,988.47
2023-04-17T10:19:48.603Z,988.48
2023-04-17T10:20:04.637Z,988.47
2023-04-17T10:20:20.786Z,988.45
2023-04-17T10:20:36.609Z,988.44
2023-04-17T10:20:52.618Z,988.44
2023-04-17T10:21:08.586Z,988.44
2023-04-17T10:21:24.605Z,988.45
2023-04-17T10:21:40.609Z,988.44
2023-04-17T10:21:56.627Z,988.44
2023-04-17T10:22:12.618Z,988.42
2023-04-17T10:22:28.596Z,988.41
2023-04-17T10:22:44.616Z,988.43
2023-04-17T10:23:00.624Z,988.43
2023-04-17T10:23:16.719Z,988.44
2023-04-17T10:23:32.632Z,988.42
2023-04-17T10:23:48.611Z,988.42
2023-04-17T10:24:04.611Z,988.43
2023-04-17T10:24:20.654Z,988.42
2023-04-17T10:24:36.633Z,988.43
2023-04-17T10:24:52.616Z,988.44
2023-04-17T10:25:08.632Z,988.43
2023-04-17T10:25:24.658Z,988.44
2023-04-17T10:25:40.651Z,988.44
2023-04-17T10:25:56.653Z,988.43
2023-04-17T10:26:12.612Z,988.43
2023-04-17T10:26:28.609Z,988.43
2023-04-17T10:26:44.650Z,988.43
2023-04-17T10:27:00.655Z,988.43
2023-04-17T10:27:16.644Z,988.42
2023-04-17T10:27:32.635Z,988.42
2023-04-17T10:27:48.629Z,988.42
2023-04-17T10:28:04.651Z,988.41
2023-04-17T10:28:20.650Z,988.41
2023-04-17T10:28:36.648Z,988.4
2023-04-17T10:28:52.654Z,988.4
2023-04-17T10:29:08.614Z,988.4
2023-04-17T10:29:24.655Z,988.4
2023-04-17T10:29:40.632Z,988.4
2023-04-17T10:29:56.664Z,988.4
2023-04-17T10:30:12.612Z,988.39
2023-04-17T10:30:28.623Z,988.37
2023-04-17T10:30:44.670Z,988.37
2023-04-17T10:31:00.977Z,988.36
2023-04-17T10:31:16.689Z,988.35
2023-04-17T10:31:32.709Z,988.35
2023-04-17T10:31:48.682Z,988.35
2023-04-17T10:32:04.723Z,988.36
2023-04-17T10:32:20.771Z,988.35
2023-04-17T10:32:36.690Z,988.35
2023-04-17T10:32:52.702Z,988.35
2023-04-17T10:33:09.744Z,988.33
2023-04-17T10:33:24.776Z,988.33
2023-04-17T10:33:40.650Z,988.32
2023-04-17T10:33:56.631Z,988.31
2023-04-17T10:34:12.835Z,988.34
2023-04-17T10:34:28.636Z,988.32
2023-04-17T10:34:44.664Z,988.32
2023-04-17T10:35:00.644Z,988.31
2023-04-17T10:35:16.672Z,988.31
2023-04-17T10:35:32.649Z,988.31
2023-04-17T10:35:48.612Z,988.3
2023-04-17T10:36:04.664Z,988.29
2023-04-17T10:36:20.628Z,988.3
2023-04-17T10:36:36.655Z,988.29
2023-04-17T10:36:52.629Z,988.29
2023-04-17T10:37:08.628Z,988.28
2023-04-17T10:37:24.678Z,988.27
2023-04-17T10:37:40.650Z,988.27
2023-04-17T10:37:56.669Z,988.25
2023-04-17T10:38:12.681Z,988.24
2023-04-17T10:38:28.636Z,988.23
2023-04-17T10:38:44.638Z,988.22
2023-04-17T10:39:00.662Z,988.23
2023-04-17T10:39:16.660Z,988.21
2023-04-17T10:39:32.658Z,988.21
2023-04-17T10:39:48.636Z,988.2
2023-04-17T10:40:04.650Z,988.2
2023-04-17T10:40:20.675Z,988.21
2023-04-17T10:40:36.654Z,988.22
2023-04-17T10:40:52.654Z,988.22
2023-04-17T10:41:08.636Z,988.21
2023-04-17T10:41:24.662Z,988.2
2023-04-17T10:41:40.663Z,988.21
2023-04-17T10:41:56.650Z,988.22
2023-04-17T10:42:12.677Z,988.22
2023-04-17T10:42:28.640Z,988.22
2023-04-17T10:42:44.678Z,988.22
2023-04-17T10:43:00.658Z,988.23
2023-04-17T10:43:16.700Z,988.22
2023-04-17T10:43:32.659Z,988.21
2023-04-17T10:43:48.678Z,988.19
2023-04-17T10:44:04.704Z,988.2
2023-04-17T10:44:20.702Z,988.21
2023-04-17T10:44:36.691Z,988.21
2023-04-17T10:44:52.681Z,988.21
2023-04-17T10:45:08.671Z,988.2
2023-04-17T10:45:24.707Z,988.19
2023-04-17T10:45:40.689Z,988.19
2023-04-17T10:45:56.821Z,988.2
2023-04-17T10:46:12.865Z,988.2
2023-04-17T10:46:28.759Z,988.17
2023-04-17T10:46:44.730Z,988.19
2023-04-17T10:47:00.723Z,988.18
2023-04-17T10:47:16.745Z,988.17
2023-04-17T10:47:32.844Z,988.18
2023-04-17T10:47:48.750Z,988.18
2023-04-17T10:48:04.823Z,988.15
2023-04-17T10:48:20.806Z,988.17
2023-04-17T10:48:36.920Z,988.19
2023-04-17T10:48:53.062Z,988.16
2023-04-17T10:49:08.798Z,988.15
2023-04-17T10:49:24.778Z,988.15
2023-04-17T10:49:40.767Z,988.14
2023-04-17T10:49:56.772Z,988.13
2023-04-17T10:50:12.762Z,988.13
2023-04-17T10:50:28.751Z,988.12
2023-04-17T10:50:44.758Z,988.12
2023-04-17T10:51:00.809Z,988.14
2023-04-17T10:51:16.780Z,988.14
2023-04-17T10:51:32.761Z,988.13
2023-04-17T10:51:48.753Z,988.12
2023-04-17T10:52:04.815Z,988.12
2023-04-17T10:52:20.780Z,988.11
2023-04-17T10:52:36.790Z,988.11
2023-04-17T10:52:52.772Z,988.11
2023-04-17T10:53:08.782Z,988.11
2023-04-17T10:53:24.820Z,988.11
2023-04-17T10:53:40.853Z,988.1
2023-04-17T10:53:56.834Z,988.11
2023-04-17T10:54:12.790Z,988.11
2023-04-17T10:54:28.803Z,988.1
2023-04-17T10:54:44.819Z,988.08
2023-04-17T10:55:00.856Z,988.06
2023-04-17T10:55:16.841Z,988.06
2023-04-17T10:55:32.795Z,988.07
2023-04-17T10:55:48.813Z,988.05
2023-04-17T10:56:04.833Z,988.04
2023-04-17T10:56:20.790Z,988.04
2023-04-17T10:56:36.837Z,988.05
2023-04-17T10:56:52.808Z,988.05
2023-04-17T10:57:08.815Z,988.06
2023-04-17T10:57:24.862Z,988.06
2023-04-17T10:57:40.866Z,988.05
2023-04-17T10:57:56.838Z,988.05
2023-04-17T10:58:12.838Z,988.04
2023-04-17T10:58:31.645Z,988.04
2023-04-17T10:58:44.851Z,988.02
2023-04-17T10:59:00.889Z,988.03
2023-04-17T10:59:17.068Z,988.02
2023-04-17T10:59:32.814Z,988.01
2023-04-17T10:59:48.838Z,988.01
2023-04-17T11:00:04.878Z,988.01
2023-04-17T11:00:20.862Z,988.01
2023-04-17T11:00:36.877Z,987.99
2023-04-17T11:00:52.864Z,987.99
2023-04-17T11:01:08.834Z,988
2023-04-17T11:01:26.118Z,988
2023-04-17T11:01:40.921Z,988
2023-04-17T11:01:56.990Z,987.99
2023-04-17T11:02:13.081Z,987.97
2023-04-17T11:02:29.016Z,987.97
2023-04-17T11:02:45.011Z,987.97
2023-04-17T11:03:01.128Z,987.97
2023-04-17T11:03:17.287Z,987.96
2023-04-17T11:03:32.907Z,987.95
2023-04-17T11:03:48.870Z,987.95
2023-04-17T11:04:04.961Z,987.95
2023-04-17T11:04:20.966Z,987.95
2023-04-17T11:04:36.922Z,987.94
2023-04-17T11:04:52.908Z,987.89
2023-04-17T11:05:08.898Z,987.87
2023-04-17T11:05:24.916Z,987.87
2023-04-17T11:05:40.929Z,987.87
2023-04-17T11:05:56.911Z,987.9
2023-04-17T11:06:12.885Z,987.89
2023-04-17T11:06:28.957Z,987.89
2023-04-17T11:06:44.928Z,987.89
2023-04-17T11:07:00.930Z,987.89
2023-04-17T11:07:16.931Z,987.88
2023-04-17T11:07:32.921Z,987.88
2023-04-17T11:07:48.917Z,987.88
2023-04-17T11:08:04.932Z,987.89
2023-04-17T11:08:20.940Z,987.89
2023-04-17T11:08:36.943Z,987.87
2023-04-17T11:08:52.910Z,987.87
2023-04-17T11:09:09.499Z,987.84
2023-04-17T11:09:24.979Z,987.83
2023-04-17T11:09:41.009Z,987.83
2023-04-17T11:09:57.001Z,987.83
2023-04-17T11:10:13.048Z,987.81
2023-04-17T11:10:29.050Z,987.82
2023-04-17T11:10:45.019Z,987.8
2023-04-17T11:11:00.992Z,987.79
2023-04-17T11:11:21.003Z,987.78
2023-04-17T11:11:43.486Z,987.79
2023-04-17T11:11:49.118Z,987.79
2023-04-17T11:12:05.030Z,987.79
2023-04-17T11:12:21.030Z,987.75
2023-04-17T11:12:37.062Z,987.76
2023-04-17T11:12:53.004Z,987.76
2023-04-17T11:13:09.080Z,987.77
2023-04-17T11:13:25.015Z,987.76
2023-04-17T11:13:41.059Z,987.76
2023-04-17T11:13:57.028Z,987.77
2023-04-17T11:14:14.659Z,987.76
2023-04-17T11:14:29.093Z,987.76
2023-04-17T11:14:45.077Z,987.76
2023-04-17T11:15:01.107Z,987.74
2023-04-17T11:15:17.062Z,987.73
2023-04-17T11:15:33.037Z,987.71
2023-04-17T11:15:49.087Z,987.71
2023-04-17T11:16:05.088Z,987.71
2023-04-17T11:16:21.146Z,987.7
2023-04-17T11:16:37.105Z,987.71
2023-04-17T11:16:53.230Z,987.72
2023-04-17T11:17:09.205Z,987.73
2023-04-17T11:17:25.172Z,987.74
2023-04-17T11:17:41.123Z,987.74
2023-04-17T11:17:57.135Z,987.74
2023-04-17T11:18:13.111Z,987.74
2023-04-17T11:18:29.132Z,987.75
2023-04-17T11:18:45.110Z,987.73
2023-04-17T11:19:01.132Z,987.73
2023-04-17T11:19:17.114Z,987.71
2023-04-17T11:19:33.109Z,987.71
2023-04-17T11:19:49.163Z,987.71
2023-04-17T11:20:05.150Z,987.71
2023-04-17T11:20:21.129Z,987.71
2023-04-17T11:20:37.117Z,987.69
2023-04-17T11:20:53.131Z,987.67
2023-04-17T11:21:09.153Z,987.67
2023-04-17T11:21:25.165Z,987.67
2023-04-17T11:21:41.176Z,987.69
2023-04-17T11:21:57.237Z,987.69
2023-04-17T11:22:13.142Z,987.69
2023-04-17T11:22:29.181Z,987.66
2023-04-17T11:22:45.169Z,987.66
2023-04-17T11:23:01.178Z,987.66
2023-04-17T11:23:17.172Z,987.68
2023-04-17T11:23:33.142Z,987.68
2023-04-17T11:23:49.177Z,987.67
2023-04-17T11:24:05.182Z,987.67
2023-04-17T11:24:21.179Z,987.67
2023-04-17T11:24:37.202Z,987.65
2023-04-17T11:24:53.192Z,987.65
2023-04-17T11:25:09.183Z,987.66
2023-04-17T11:25:41.219Z,987.64
2023-04-17T11:25:57.155Z,987.64
2023-04-17T11:26:13.152Z,987.67
2023-04-17T11:26:29.196Z,987.66
2023-04-17T11:26:45.188Z,987.68
2023-04-17T11:27:01.238Z,987.67
2023-04-17T11:27:17.191Z,987.67
2023-04-17T11:27:33.165Z,987.67
2023-04-17T11:27:49.309Z,987.7